Time;durP1;ratioP1;P1;durP2;ratioP2;P2;SDS_P1;SDS_P2;PMS_P1;PMS_P2;Temp;Humidity;BMP_temperature;BMP_pressure;BME280_temperature;BME280_humidity;BME280_pressure;Samples;Min_cycle;Max_cycle;Signal;HPM_P1;HPM_P2
2024/02/19 00:01:00;;;;;;;;;;;;;;;17.25;49.71;100341.13;10368075;28;798;-75
2024/02/19 00:05:56;;;;;;;;;;;;;;;17.23;49.75;100349.06;10368085;28;844;-74
2024/02/19 00:10:52;;;;;;;;;;;;;;;17.22;49.58;100355.25;10367890;28;891;-74
2024/02/19 00:15:48;;;;;;;;;;;;;;;17.21;49.64;100366.72;10368219;28;1967;-74
2024/02/19 00:20:44;;;;;;;;;;;;;;;17.22;49.83;100368.44;10367801;28;841;-74
2024/02/19 00:25:40;;;;;;;;;;;;;;;17.22;49.55;100386.03;10367180;28;862;-74
2024/02/19 00:30:36;;;;;;;;;;;;;;;17.22;49.77;100386.03;10366755;28;1401;-74
2024/02/19 00:35:32;;;;;;;;;;;;;;;17.21;49.91;100400.09;10367027;28;1917;-74
2024/02/19 00:40:28;;;;;;;;;;;;;;;17.20;49.67;100404.50;10366792;28;984;-75
2024/02/19 00:45:24;;;;;;;;;;;;;;;17.20;49.74;100422.94;10366575;28;961;-74
2024/02/19 00:50:20;;;;;;;;;;;;;;;17.20;49.45;100432.63;10366889;28;854;-74
2024/02/19 00:55:16;;;;;;;;;;;;;;;17.20;49.70;100435.25;10367257;28;1894;-74
2024/02/19 01:00:12;;;;;;;;;;;;;;;17.18;49.65;100434.44;10366542;28;924;-74
2024/02/19 01:05:08;;;;;;;;;;;;;;;17.18;49.43;100442.31;10366223;28;913;-74
2024/02/19 01:10:04;;;;;;;;;;;;;;;17.18;49.57;100448.47;10366763;28;961;-75
2024/02/19 01:14:59;;;;;;;;;;;;;;;17.18;49.62;100452.88;10366006;28;1953;-74
2024/02/19 01:19:57;;;;;;;;;;;;;;;17.15;49.53;100464.34;10366639;28;877;-75
2024/02/19 01:24:52;;;;;;;;;;;;;;;17.15;49.50;100467.00;10365280;28;972;-74
2024/02/19 01:29:48;;;;;;;;;;;;;;;17.16;49.38;100470.47;10366499;28;1305;-74
2024/02/19 01:34:44;;;;;;;;;;;;;;;17.16;49.53;100475.75;10372896;28;734;-74
2024/02/19 01:39:40;;;;;;;;;;;;;;;17.15;49.54;100490.69;10373617;28;1909;-74
2024/02/19 01:44:36;;;;;;;;;;;;;;;17.14;49.27;100494.25;10374040;28;937;-74
2024/02/19 01:49:33;;;;;;;;;;;;;;;17.13;49.40;100504.81;10374300;28;873;-74
2024/02/19 01:54:28;;;;;;;;;;;;;;;17.14;49.36;100507.44;10373101;28;848;-74
2024/02/19 01:59:24;;;;;;;;;;;;;;;17.13;49.28;100520.63;10372297;28;1886;-74
2024/02/19 02:04:20;;;;;;;;;;;;;;;17.14;49.25;100527.66;10372649;28;773;-74
2024/02/19 02:09:16;;;;;;;;;;;;;;;17.12;49.23;100527.66;10373097;28;881;-74
2024/02/19 02:14:12;;;;;;;;;;;;;;;17.12;49.38;100532.94;10372343;28;897;-74
2024/02/19 02:19:08;;;;;;;;;;;;;;;17.11;49.28;100531.22;10371503;28;1953;-75
2024/02/19 02:24:05;;;;;;;;;;;;;;;17.11;49.18;100544.41;10371994;28;917;-74
2024/02/19 02:29:00;;;;;;;;;;;;;;;17.12;49.21;100542.63;10371503;28;1380;-75
2024/02/19 02:33:56;;;;;;;;;;;;;;;17.11;49.24;100543.50;10371599;28;885;-74
2024/02/19 02:38:52;;;;;;;;;;;;;;;17.11;49.33;100543.50;10371206;28;1906;-74
2024/02/19 02:43:48;;;;;;;;;;;;;;;17.11;49.17;100549.66;10369620;28;1035;-74
2024/02/19 02:48:44;;;;;;;;;;;;;;;17.11;49.18;100556.69;10371596;28;868;-74
2024/02/19 02:53:40;;;;;;;;;;;;;;;17.09;49.35;100552.31;10371407;28;845;-74
2024/02/19 02:58:36;;;;;;;;;;;;;;;17.09;49.37;100560.22;10371040;28;1956;-74
2024/02/19 03:03:32;;;;;;;;;;;;;;;17.09;49.31;100562.00;10370403;28;857;-74
2024/02/19 03:08:28;;;;;;;;;;;;;;;17.09;49.20;100568.13;10370189;28;920;-75
2024/02/19 03:13:24;;;;;;;;;;;;;;;17.09;49.21;100572.53;10369421;28;857;-75
2024/02/19 03:18:20;;;;;;;;;;;;;;;17.09;49.20;100578.66;10370849;28;1874;-75
2024/02/19 03:23:16;;;;;;;;;;;;;;;17.09;49.49;100583.06;10369603;28;1151;-74
2024/02/19 03:28:12;;;;;;;;;;;;;;;17.09;49.12;100585.72;10369834;28;1242;-74
2024/02/19 03:33:08;;;;;;;;;;;;;;;17.08;49.15;100578.69;10370015;28;963;-75
2024/02/19 03:38:04;;;;;;;;;;;;;;;17.09;49.28;100580.44;10368947;28;1911;-75
2024/02/19 03:42:59;;;;;;;;;;;;;;;17.08;49.27;100583.97;10369497;28;824;-74
2024/02/19 03:47:56;;;;;;;;;;;;;;;17.08;49.19;100586.59;10368690;28;870;-74
2024/02/19 03:52:52;;;;;;;;;;;;;;;17.07;49.39;100592.78;10367806;28;907;-75
2024/02/19 03:57:48;;;;;;;;;;;;;;;17.07;49.16;100603.31;10368726;28;2316;-75
2024/02/19 04:02:44;;;;;;;;;;;;;;;17.07;49.23;100614.72;10368106;28;972;-75
2024/02/19 04:07:39;;;;;;;;;;;;;;;17.06;49.26;100604.25;10368178;28;769;-75
2024/02/19 04:12:35;;;;;;;;;;;;;;;17.05;49.27;100613.88;10367765;28;897;-74
2024/02/19 04:17:34;;;;;;;;;;;;;;;17.06;49.32;100606.88;10368273;28;1894;-75
2024/02/19 04:22:30;;;;;;;;;;;;;;;17.06;49.27;100606.88;10368085;28;822;-75
2024/02/19 04:27:26;;;;;;;;;;;;;;;17.06;49.35;100617.41;10366706;28;944;-75
2024/02/19 04:32:22;;;;;;;;;;;;;;;17.05;49.18;100619.16;10368006;28;1325;-75
2024/02/19 04:37:18;;;;;;;;;;;;;;;17.06;49.18;100622.69;10367165;28;1902;-75
2024/02/19 04:42:13;;;;;;;;;;;;;;;17.05;49.28;100621.78;10366821;28;775;-75
2024/02/19 04:47:09;;;;;;;;;;;;;;;17.06;49.19;100627.94;10366753;28;821;-75
2024/02/19 04:52:05;;;;;;;;;;;;;;;17.07;49.22;100629.66;10366626;28;864;-75
2024/02/19 04:57:01;;;;;;;;;;;;;;;17.06;49.30;100649.88;10366570;28;1945;-75
2024/02/19 05:01:57;;;;;;;;;;;;;;;17.10;49.16;100640.13;10366370;28;825;-75
2024/02/19 05:06:56;;;;;;;;;;;;;;;17.09;49.39;100641.88;10368954;28;844;-75
2024/02/19 05:11:52;;;;;;;;;;;;;;;17.10;49.08;100640.13;10375406;28;900;-75
2024/02/19 05:16:47;;;;;;;;;;;;;;;17.11;49.26;100635.69;10375173;28;1910;-74
2024/02/19 05:21:43;;;;;;;;;;;;;;;17.13;49.14;100640.03;10373901;28;911;-74
2024/02/19 05:26:40;;;;;;;;;;;;;;;17.12;49.19;100638.31;10374237;28;784;-75
2024/02/19 05:31:36;;;;;;;;;;;;;;;17.14;49.06;100636.50;10373967;28;1628;-75
2024/02/19 05:36:31;;;;;;;;;;;;;;;17.15;49.26;100638.22;10373737;28;1969;-75
2024/02/19 05:41:27;;;;;;;;;;;;;;;17.15;49.18;100643.50;10373691;28;953;-75
2024/02/19 05:46:23;;;;;;;;;;;;;;;17.16;49.29;100639.06;10374105;28;806;-75
2024/02/19 05:51:19;;;;;;;;;;;;;;;17.18;49.24;100642.53;10373303;28;769;-75
2024/02/19 05:56:15;;;;;;;;;;;;;;;17.17;49.12;100643.47;10372945;28;1949;-75
2024/02/19 06:01:12;;;;;;;;;;;;;;;17.18;49.15;100653.09;10372965;28;789;-75
2024/02/19 06:06:08;;;;;;;;;;;;;;;17.18;49.21;100669.75;10372738;28;934;-75
2024/02/19 06:11:04;;;;;;;;;;;;;;;17.20;49.15;100661.81;10372518;28;877;-75
2024/02/19 06:16:00;;;;;;;;;;;;;;;17.19;49.16;100655.69;10372408;28;1894;-75
2024/02/19 06:20:56;;;;;;;;;;;;;;;17.19;49.25;100654.84;10370803;28;838;-75
2024/02/19 06:25:53;;;;;;;;;;;;;;;17.20;48.89;100652.13;10371923;28;761;-74
2024/02/19 06:30:48;;;;;;;;;;;;;;;17.19;49.38;100655.69;10371829;28;1147;-75
2024/02/19 06:35:44;;;;;;;;;;;;;;;17.21;49.10;100659.16;10372741;28;1969;-75
2024/02/19 06:40:40;;;;;;;;;;;;;;;17.22;48.94;100662.66;10371550;28;968;-76
2024/02/19 06:45:36;;;;;;;;;;;;;;;17.21;49.14;100669.69;10371173;28;809;-75
2024/02/19 06:50:32;;;;;;;;;;;;;;;17.21;48.94;100680.22;10371566;28;888;-77
2024/02/19 06:55:28;;;;;;;;;;;;;;;17.21;49.15;100682.88;10371291;28;1893;-74
2024/02/19 07:00:24;;;;;;;;;;;;;;;17.21;48.99;100696.03;10371182;28;981;-78
2024/02/19 07:05:20;;;;;;;;;;;;;;;17.22;48.96;100689.00;10370731;28;764;-70
2024/02/19 07:10:15;;;;;;;;;;;;;;;17.23;49.08;100707.38;10370047;28;965;-71
2024/02/19 07:15:12;;;;;;;;;;;;;;;17.22;49.09;100699.53;10370585;28;1956;-73
2024/02/19 07:20:08;;;;;;;;;;;;;;;17.21;49.08;100703.94;10369756;28;905;-72
2024/02/19 07:25:04;;;;;;;;;;;;;;;17.21;49.13;100701.31;10369524;28;851;-70
2024/02/19 07:30:00;;;;;;;;;;;;;;;17.17;49.13;100697.00;10369161;28;1898;-74
2024/02/19 07:34:56;;;;;;;;;;;;;;;17.17;49.32;100699.66;10369242;28;889;-72
2024/02/19 07:39:52;;;;;;;;;;;;;;;17.16;49.31;100712.84;10369166;28;1977;-71
2024/02/19 07:44:48;;;;;;;;;;;;;;;17.18;49.17;100713.69;10368863;28;870;-73
2024/02/19 07:49:44;;;;;;;;;;;;;;;17.18;49.10;100711.03;10369187;28;899;-71
2024/02/19 07:54:40;;;;;;;;;;;;;;;17.18;49.23;100708.41;10368446;28;782;-72
2024/02/19 07:59:36;;;;;;;;;;;;;;;17.19;49.32;100704.88;10368954;28;1965;-71
2024/02/19 08:04:32;;;;;;;;;;;;;;;17.19;49.04;100697.84;10368043;28;897;-71
2024/02/19 08:09:27;;;;;;;;;;;;;;;17.21;49.03;100714.47;10368511;28;810;-71
2024/02/19 08:14:24;;;;;;;;;;;;;;;17.22;49.29;100707.44;10368367;28;849;-71
2024/02/19 08:19:20;;;;;;;;;;;;;;;17.24;49.39;100701.22;10367446;28;1957;-71
2024/02/19 08:24:17;;;;;;;;;;;;;;;17.25;49.28;100696.81;10367371;28;960;-71
2024/02/19 08:29:13;;;;;;;;;;;;;;;17.25;49.36;100697.69;10367120;28;1108;-73
2024/02/19 08:34:08;;;;;;;;;;;;;;;17.25;49.35;100696.81;10367122;28;857;-70
2024/02/19 08:39:04;;;;;;;;;;;;;;;17.24;49.32;100693.31;10366951;28;1968;-71
2024/02/19 08:44:00;;;;;;;;;;;;;;;17.23;49.16;100688.94;10365952;28;794;-74
2024/02/19 08:48:56;;;;;;;;;;;;;;;17.23;49.14;100695.97;10366375;28;774;-74
2024/02/19 08:53:52;;;;;;;;;;;;;;;17.23;49.20;100688.06;10367148;28;833;-74
2024/02/19 08:58:48;;;;;;;;;;;;;;;17.24;49.23;100693.31;10366629;28;1901;-74
2024/02/19 09:03:44;;;;;;;;;;;;;;;17.24;49.15;100693.31;10367053;28;853;-74
2024/02/19 09:08:40;;;;;;;;;;;;;;;17.22;49.01;100692.50;10366935;28;888;-74
2024/02/19 09:13:36;;;;;;;;;;;;;;;17.23;48.96;100678.41;10366243;28;910;-74
2024/02/19 09:18:32;;;;;;;;;;;;;;;17.25;49.07;100671.31;10366116;28;1898;-74
2024/02/19 09:23:28;;;;;;;;;;;;;;;17.25;48.90;100684.50;10366652;28;769;-74
2024/02/19 09:28:24;;;;;;;;;;;;;;;17.25;49.08;100673.09;10366039;28;1035;-73
2024/02/19 09:33:20;;;;;;;;;;;;;;;17.25;49.00;100676.59;10366494;28;757;-74
2024/02/19 09:38:16;;;;;;;;;;;;;;;17.25;49.09;100673.09;10365684;28;1977;-74
2024/02/19 09:43:12;;;;;;;;;;;;;;;17.24;49.14;100672.25;10366234;28;836;-74
2024/02/19 09:48:08;;;;;;;;;;;;;;;17.25;48.96;100675.75;10365554;28;825;-74
2024/02/19 09:53:04;;;;;;;;;;;;;;;17.25;48.85;100663.41;10368788;28;849;-74
2024/02/19 09:57:59;;;;;;;;;;;;;;;17.25;48.99;100652.03;10372629;28;1953;-74
2024/02/19 10:02:55;;;;;;;;;;;;;;;17.26;48.92;100661.66;10372901;28;825;-74
2024/02/19 10:07:57;;;;;;;;;;;;;;;17.26;48.96;100661.66;10373307;28;810;-71
2024/02/19 10:12:53;;;;;;;;;;;;;;;17.28;49.06;100659.84;10372980;28;785;-72
2024/02/19 10:17:49;;;;;;;;;;;;;;;17.29;48.98;100662.44;10373304;28;1949;-69
2024/02/19 10:22:45;;;;;;;;;;;;;;;17.31;49.29;100665.88;10372132;28;797;-69
2024/02/19 10:27:43;;;;;;;;;;;;;;;17.35;49.14;100661.41;10371718;28;861;-69
2024/02/19 10:32:41;;;;;;;;;;;;;;;17.35;49.14;100671.09;10328464;28;1391;-69
2024/02/19 10:37:37;;;;;;;;;;;;;;;17.37;49.38;100677.16;10201297;28;1910;-69
2024/02/19 10:42:32;;;;;;;;;;;;;;;17.38;49.11;100673.66;10201694;28;814;-71
2024/02/19 10:47:28;;;;;;;;;;;;;;;17.40;49.22;100677.13;10202101;28;786;-69
2024/02/19 10:52:24;;;;;;;;;;;;;;;17.41;49.35;100681.47;10202133;28;893;-69
2024/02/19 10:57:20;;;;;;;;;;;;;;;17.40;49.16;100664.78;10201145;28;2003;-69
2024/02/19 11:02:16;;;;;;;;;;;;;;;17.42;49.41;100677.91;10201414;28;765;-69
2024/02/19 11:07:12;;;;;;;;;;;;;;;17.44;49.40;100662.94;10200063;28;972;-69
2024/02/19 11:12:08;;;;;;;;;;;;;;;17.45;49.19;100657.63;10201349;28;848;-69
2024/02/19 11:17:04;;;;;;;;;;;;;;;17.46;49.43;100655.84;10201079;28;1951;-69
2024/02/19 11:22:00;;;;;;;;;;;;;;;17.45;49.35;100651.50;10201329;28;821;-69
2024/02/19 11:26:56;;;;;;;;;;;;;;;17.45;49.32;100649.72;10200195;28;779;-69
2024/02/19 11:31:52;;;;;;;;;;;;;;;17.46;49.29;100640.03;10200735;28;1078;-69
2024/02/19 11:36:47;;;;;;;;;;;;;;;17.45;49.20;100643.59;10200251;28;1914;-69
2024/02/19 11:41:43;;;;;;;;;;;;;;;17.45;49.42;100635.69;10200136;28;901;-69
2024/02/19 11:46:39;;;;;;;;;;;;;;;17.44;49.49;100634.78;10199524;28;841;-69
2024/02/19 11:51:37;;;;;;;;;;;;;;;17.45;49.39;100633.06;10199712;28;931;-69
2024/02/19 11:56:33;;;;;;;;;;;;;;;17.45;49.46;100627.78;10199249;28;1952;-69
2024/02/19 12:01:29;;;;;;;;;;;;;;;17.46;49.40;100621.59;10199377;28;778;-69
2024/02/19 12:06:25;;;;;;;;;;;;;;;17.48;49.62;100606.59;10199576;28;931;-69
2024/02/19 12:11:21;;;;;;;;;;;;;;;17.49;49.46;100600.41;10199661;28;810;-69
2024/02/19 12:16:16;;;;;;;;;;;;;;;17.49;49.72;100595.13;10199233;28;1949;-69
2024/02/19 12:21:12;;;;;;;;;;;;;;;17.50;49.80;100594.22;10199006;28;851;-69
2024/02/19 12:26:09;;;;;;;;;;;;;;;17.50;49.88;100587.19;10197732;28;881;-69
2024/02/19 12:31:05;;;;;;;;;;;;;;;17.51;49.80;100585.44;10198651;28;1108;-69
2024/02/19 12:36:01;;;;;;;;;;;;;;;17.51;49.96;100582.78;10197584;28;1963;-69
2024/02/19 12:40:57;;;;;;;;;;;;;;;17.53;49.86;100567.78;10199061;28;833;-69
2024/02/19 12:45:53;;;;;;;;;;;;;;;17.54;49.98;100566.88;10197817;28;868;-69
2024/02/19 12:50:49;;;;;;;;;;;;;;;17.55;50.08;100554.56;10198240;28;784;-69
2024/02/19 12:55:45;;;;;;;;;;;;;;;17.57;49.80;100560.66;10198042;28;1915;-69
2024/02/19 13:00:42;;;;;;;;;;;;;;;17.57;50.06;100550.97;10197916;28;790;-71
2024/02/19 13:05:38;;;;;;;;;;;;;;;17.58;50.07;100543.91;10197182;28;897;-69
2024/02/19 13:10:34;;;;;;;;;;;;;;;17.59;49.95;100549.16;10197621;28;893;-72
2024/02/19 13:15:30;;;;;;;;;;;;;;;17.59;49.87;100545.66;10197508;28;1902;-69
2024/02/19 13:20:25;;;;;;;;;;;;;;;17.61;50.02;100552.63;10197411;28;906;-69
2024/02/19 13:25:21;;;;;;;;;;;;;;;17.62;49.90;100556.09;10196969;28;866;-69
2024/02/19 13:30:17;;;;;;;;;;;;;;;17.61;49.99;100563.16;10202408;28;1218;-69
2024/02/19 13:35:13;;;;;;;;;;;;;;;17.61;49.87;100557.88;10203915;28;821;-71
2024/02/19 13:40:10;;;;;;;;;;;;;;;17.61;49.79;100557.88;10204152;28;1973;-69
2024/02/19 13:45:09;;;;;;;;;;;;;;;17.60;49.92;100545.59;10204226;28;857;-70
2024/02/19 13:50:05;;;;;;;;;;;;;;;17.60;49.71;100547.38;10203335;28;857;-70
2024/02/19 13:55:01;;;;;;;;;;;;;;;17.60;49.92;100539.47;10202850;28;941;-69
2024/02/19 13:59:59;;;;;;;;;;;;;;;17.61;49.81;100536.81;10202881;28;1898;-70
2024/02/19 14:04:54;;;;;;;;;;;;;;;17.61;49.82;100535.94;10202730;28;793;-70
2024/02/19 14:09:50;;;;;;;;;;;;;;;17.61;49.80;100533.31;10202534;28;892;-70
2024/02/19 14:14:46;;;;;;;;;;;;;;;17.61;49.81;100528.88;10202393;28;897;-69
2024/02/19 14:19:42;;;;;;;;;;;;;;;17.62;49.86;100527.97;10202085;28;1957;-69
2024/02/19 14:24:38;;;;;;;;;;;;;;;17.62;49.90;100520.06;10203073;28;861;-70
2024/02/19 14:29:34;;;;;;;;;;;;;;;17.62;49.76;100512.16;10202831;28;1132;-70
2024/02/19 14:34:32;;;;;;;;;;;;;;;17.62;49.67;100512.16;10201670;28;892;-70
2024/02/19 14:39:30;;;;;;;;;;;;;;;17.62;49.41;100503.38;10201391;28;1965;-70
2024/02/19 14:44:26;;;;;;;;;;;;;;;17.62;49.80;100506.88;10201846;28;849;-70
2024/02/19 14:49:22;;;;;;;;;;;;;;;17.62;50.00;100495.47;10202388;28;849;-70
2024/02/19 14:54:18;;;;;;;;;;;;;;;17.61;49.73;100480.59;10201624;28;937;-69
2024/02/19 14:59:14;;;;;;;;;;;;;;;17.60;50.00;100477.06;10201391;28;1898;-70
2024/02/19 15:04:11;;;;;;;;;;;;;;;17.59;49.83;100474.50;10201196;28;766;-70
2024/02/19 15:09:09;;;;;;;;;;;;;;;17.57;49.82;100474.53;10201677;28;849;-70
2024/02/19 15:14:06;;;;;;;;;;;;;;;17.58;49.77;100483.28;10201690;28;845;-69
2024/02/19 15:19:02;;;;;;;;;;;;;;;17.57;49.81;100487.69;10200764;28;1953;-71
2024/02/19 15:24:02;;;;;;;;;;;;;;;17.58;49.88;100494.72;10199186;28;1029;-69
2024/02/19 15:28:57;;;;;;;;;;;;;;;17.57;49.64;100492.97;10200236;28;1274;-70
2024/02/19 15:33:53;;;;;;;;;;;;;;;17.57;49.87;100497.38;10199960;28;877;-70
2024/02/19 15:38:50;;;;;;;;;;;;;;;17.57;49.82;100486.84;10199971;28;1973;-70
2024/02/19 15:43:46;;;;;;;;;;;;;;;17.57;49.81;100477.16;10200469;28;872;-70
2024/02/19 15:48:42;;;;;;;;;;;;;;;17.57;49.59;100478.94;10200007;28;879;-72
2024/02/19 15:53:38;;;;;;;;;;;;;;;17.57;49.77;100479.78;10200064;28;850;-70
2024/02/19 15:58:34;;;;;;;;;;;;;;;17.57;49.88;100477.16;10199533;28;1960;-69
2024/02/19 16:03:32;;;;;;;;;;;;;;;17.57;49.89;100481.56;10199605;28;861;-71
2024/02/19 16:08:28;;;;;;;;;;;;;;;17.57;49.94;100474.53;10200134;28;782;-74
2024/02/19 16:13:24;;;;;;;;;;;;;;;17.58;49.81;100478.91;10199800;28;873;-70
2024/02/19 16:18:20;;;;;;;;;;;;;;;17.57;49.84;100469.25;10198972;28;1955;-70
2024/02/19 16:23:16;;;;;;;;;;;;;;;17.58;49.89;100463.09;10199477;28;873;-70
2024/02/19 16:28:12;;;;;;;;;;;;;;;17.59;49.66;100466.56;10198565;28;1546;-69
2024/02/19 16:33:07;;;;;;;;;;;;;;;17.60;49.83;100474.41;10198511;28;782;-70
2024/02/19 16:38:03;;;;;;;;;;;;;;;17.60;49.75;100468.28;10198444;28;1973;-70
2024/02/19 16:43:00;;;;;;;;;;;;;;;17.60;49.87;100469.16;10198830;28;866;-70
2024/02/19 16:47:56;;;;;;;;;;;;;;;17.60;49.93;100466.50;10198301;28;837;-70
2024/02/19 16:52:51;;;;;;;;;;;;;;;17.62;50.00;100469.13;10198072;28;830;-70
2024/02/19 16:57:47;;;;;;;;;;;;;;;17.62;50.05;100469.97;10197862;28;1898;-70
2024/02/19 17:02:43;;;;;;;;;;;;;;;17.63;50.05;100476.09;10197514;28;841;-69
2024/02/19 17:07:39;;;;;;;;;;;;;;;17.64;50.05;100477.84;10197684;28;855;-69
2024/02/19 17:12:35;;;;;;;;;;;;;;;17.65;50.02;100475.13;10198065;28;837;-69
2024/02/19 17:17:31;;;;;;;;;;;;;;;17.66;50.08;100471.63;10197344;28;1890;-69
2024/02/19 17:22:28;;;;;;;;;;;;;;;17.66;50.01;100476.88;10197944;28;909;-70
2024/02/19 17:27:24;;;;;;;;;;;;;;;17.67;50.07;100489.16;10197086;28;1054;-70
2024/02/19 17:32:19;;;;;;;;;;;;;;;17.67;50.22;100481.25;10197387;28;1392;-70
2024/02/19 17:37:16;;;;;;;;;;;;;;;17.68;50.23;100485.63;10197455;28;1971;-71
2024/02/19 17:42:12;;;;;;;;;;;;;;;17.69;50.12;100484.69;10196818;28;817;-70
2024/02/19 17:47:08;;;;;;;;;;;;;;;17.70;50.07;100482.91;10196706;28;879;-70
2024/02/19 17:52:04;;;;;;;;;;;;;;;17.70;49.99;100483.78;10196596;28;809;-70
2024/02/19 17:57:02;;;;;;;;;;;;;;;17.69;50.00;100487.34;10197004;28;1894;-70
2024/02/19 18:01:58;;;;;;;;;;;;;;;17.70;50.14;100483.78;10197294;28;798;-70
2024/02/19 18:06:55;;;;;;;;;;;;;;;17.71;50.02;100484.63;10195689;28;995;-70
2024/02/19 18:11:51;;;;;;;;;;;;;;;17.72;49.97;100487.22;10196040;28;901;-70
2024/02/19 18:16:47;;;;;;;;;;;;;;;17.73;49.88;100483.66;10202740;28;1898;-70
2024/02/19 18:21:43;;;;;;;;;;;;;;;17.74;49.90;100484.56;10203292;28;846;-70
2024/02/19 18:26:39;;;;;;;;;;;;;;;17.73;49.82;100481.03;10202914;28;900;-70
2024/02/19 18:31:37;;;;;;;;;;;;;;;17.75;50.02;100486.28;10202163;28;1400;-70
2024/02/19 18:36:33;;;;;;;;;;;;;;;17.75;49.81;100486.28;10202160;28;1977;-70
2024/02/19 18:41:32;;;;;;;;;;;;;;;17.74;50.03;100482.78;10202634;28;889;-70
2024/02/19 18:46:28;;;;;;;;;;;;;;;17.75;49.79;100487.13;10201867;28;937;-70
2024/02/19 18:51:24;;;;;;;;;;;;;;;17.75;49.88;100476.59;10202343;28;810;-70
2024/02/19 18:56:19;;;;;;;;;;;;;;;17.75;49.83;100481.84;10200944;28;1957;-70
2024/02/19 19:01:16;;;;;;;;;;;;;;;17.76;49.72;100477.44;10202300;28;782;-70
2024/02/19 19:06:12;;;;;;;;;;;;;;;17.78;49.86;100474.75;10201888;28;853;-70
2024/02/19 19:11:08;;;;;;;;;;;;;;;17.79;49.75;100476.47;10201179;28;868;-70
2024/02/19 19:16:04;;;;;;;;;;;;;;;17.78;49.91;100480.03;10200935;28;1955;-70
2024/02/19 19:21:00;;;;;;;;;;;;;;;17.79;49.80;100476.47;10200926;28;893;-70
2024/02/19 19:25:56;;;;;;;;;;;;;;;17.79;49.80;100473.84;10199458;28;1166;-70
2024/02/19 19:30:52;;;;;;;;;;;;;;;17.79;49.66;100468.56;10201042;28;1079;-70
2024/02/19 19:35:49;;;;;;;;;;;;;;;17.80;49.80;100476.47;10200328;28;1911;-70
2024/02/19 19:40:45;;;;;;;;;;;;;;;17.80;49.65;100473.84;10201216;28;790;-70
2024/02/19 19:45:41;;;;;;;;;;;;;;;17.80;49.80;100468.56;10200073;28;764;-70
2024/02/19 19:50:37;;;;;;;;;;;;;;;17.80;49.65;100470.34;10201089;28;909;-70
2024/02/19 19:55:34;;;;;;;;;;;;;;;17.82;49.78;100476.44;10199223;28;1977;-70
2024/02/19 20:00:30;;;;;;;;;;;;;;;17.81;49.68;100480.81;10200194;28;978;-70
2024/02/19 20:05:26;;;;;;;;;;;;;;;17.82;49.74;100479.09;10199503;28;814;-70
2024/02/19 20:10:22;;;;;;;;;;;;;;;17.82;49.73;100479.94;10199972;28;876;-70
2024/02/19 20:15:18;;;;;;;;;;;;;;;17.83;49.76;100483.44;10200003;28;869;-70
2024/02/19 20:20:14;;;;;;;;;;;;;;;17.83;49.76;100491.34;10199007;28;1959;-70
2024/02/19 20:25:09;;;;;;;;;;;;;;;17.84;49.69;100496.59;10200152;28;896;-70
2024/02/19 20:30:06;;;;;;;;;;;;;;;17.85;49.76;100495.66;10198848;28;1116;-70
2024/02/19 20:35:02;;;;;;;;;;;;;;;17.85;49.68;100502.72;10199142;28;868;-70
2024/02/19 20:40:00;;;;;;;;;;;;;;;17.85;49.56;100507.97;10197823;28;1957;-70
2024/02/19 20:44:56;;;;;;;;;;;;;;;17.82;49.75;100508.94;10198230;28;886;-70
2024/02/19 20:49:54;;;;;;;;;;;;;;;17.82;49.51;100521.28;10198200;28;955;-70
2024/02/19 20:54:52;;;;;;;;;;;;;;;17.82;49.64;100522.13;10198026;28;762;-70
2024/02/19 20:59:48;;;;;;;;;;;;;;;17.82;49.72;100534.47;10197895;28;1890;-70
2024/02/19 21:04:43;;;;;;;;;;;;;;;17.81;49.57;100546.75;10197749;28;798;-70
2024/02/19 21:09:40;;;;;;;;;;;;;;;17.82;49.61;100545.00;10197636;28;771;-70
2024/02/19 21:14:36;;;;;;;;;;;;;;;17.80;49.67;100552.94;10197518;28;1591;-70
2024/02/19 21:19:32;;;;;;;;;;;;;;;17.80;49.62;100558.22;10197340;28;1898;-70
2024/02/19 21:24:28;;;;;;;;;;;;;;;17.79;49.55;100568.78;10196707;28;917;-70
2024/02/19 21:29:28;;;;;;;;;;;;;;;17.78;49.52;100573.19;10197069;28;1096;-70
2024/02/19 21:34:24;;;;;;;;;;;;;;;17.79;49.53;100580.25;10196920;28;1003;-70
2024/02/19 21:39:20;;;;;;;;;;;;;;;17.79;49.55;100590.78;10197088;28;1973;-70
2024/02/19 21:44:15;;;;;;;;;;;;;;;17.78;49.45;100593.44;10197669;28;834;-70
2024/02/19 21:49:14;;;;;;;;;;;;;;;17.76;49.65;100598.72;10199076;28;842;-70
2024/02/19 21:54:10;;;;;;;;;;;;;;;17.75;49.64;100602.28;10204407;28;845;-70
2024/02/19 21:59:06;;;;;;;;;;;;;;;17.75;49.50;100603.16;10203644;28;1947;-70
2024/02/19 22:04:02;;;;;;;;;;;;;;;17.72;49.54;100600.59;10203810;28;920;-70
2024/02/19 22:08:57;;;;;;;;;;;;;;;17.72;49.37;100605.03;10203384;28;857;-70
2024/02/19 22:13:53;;;;;;;;;;;;;;;17.70;49.47;100598.94;10203210;28;880;-70
2024/02/19 22:18:49;;;;;;;;;;;;;;;17.68;49.49;100601.63;10203619;28;1959;-70
2024/02/19 22:23:46;;;;;;;;;;;;;;;17.68;49.31;100606.91;10203479;28;896;-70
2024/02/19 22:28:42;;;;;;;;;;;;;;;17.67;49.36;100604.28;10203174;28;1107;-70
2024/02/19 22:33:38;;;;;;;;;;;;;;;17.64;49.50;100607.88;10203135;28;810;-70
2024/02/19 22:38:33;;;;;;;;;;;;;;;17.64;49.55;100612.28;10203056;28;1918;-70
2024/02/19 22:43:29;;;;;;;;;;;;;;;17.62;49.49;100607.06;10202258;28;872;-70
2024/02/19 22:48:26;;;;;;;;;;;;;;;17.62;49.50;100611.47;10201832;28;1111;-70
2024/02/19 22:53:22;;;;;;;;;;;;;;;17.60;49.42;100611.50;10202504;28;976;-70
2024/02/19 22:58:17;;;;;;;;;;;;;;;17.58;49.48;100605.44;10201797;28;1957;-70
2024/02/19 23:03:13;;;;;;;;;;;;;;;17.57;49.36;100613.38;10201214;28;872;-70
2024/02/19 23:08:09;;;;;;;;;;;;;;;17.56;49.04;100617.78;10202123;28;896;-70
2024/02/19 23:13:05;;;;;;;;;;;;;;;17.55;49.28;100623.09;10201407;28;790;-70
2024/02/19 23:18:02;;;;;;;;;;;;;;;17.53;49.36;100628.44;10201185;28;1949;-70
2024/02/19 23:22:59;;;;;;;;;;;;;;;17.53;49.37;100628.44;10201120;28;838;-70
2024/02/19 23:27:55;;;;;;;;;;;;;;;17.51;49.51;100638.13;10201517;28;980;-70
2024/02/19 23:32:50;;;;;;;;;;;;;;;17.50;49.43;100636.38;10200342;28;1263;-70
2024/02/19 23:37:47;;;;;;;;;;;;;;;17.49;49.51;100651.34;10200477;28;1923;-71
2024/02/19 23:42:43;;;;;;;;;;;;;;;17.49;49.34;100647.84;10200618;28;794;-70
2024/02/19 23:47:39;;;;;;;;;;;;;;;17.48;49.40;100657.53;10200870;28;817;-70
2024/02/19 23:52:35;;;;;;;;;;;;;;;17.47;49.37;100655.78;10200168;28;765;-70
2024/02/19 23:57:31;;;;;;;;;;;;;;;17.47;49.27;100660.19;10200045;28;1958;-70
